sensor_id;sensor_type;location;lat;lon;timestamp;temperature;humidity
40257;DHT22;25977;45.462;9.210;2023-04-06T00:00:56;10.40;46.40
40257;DHT22;25977;45.462;9.210;2023-04-06T00:03:22;10.40;46.50
40257;DHT22;25977;45.462;9.210;2023-04-06T00:05:48;10.40;46.60
40257;DHT22;25977;45.462;9.210;2023-04-06T00:08:14;10.30;46.70
40257;DHT22;25977;45.462;9.210;2023-04-06T00:10:40;10.40;46.60
40257;DHT22;25977;45.462;9.210;2023-04-06T00:13:06;10.40;46.70
40257;DHT22;25977;45.462;9.210;2023-04-06T00:15:33;10.40;46.70
40257;DHT22;25977;45.462;9.210;2023-04-06T00:17:58;10.40;46.80
40257;DHT22;25977;45.462;9.210;2023-04-06T00:20:24;10.40;46.80
40257;DHT22;25977;45.462;9.210;2023-04-06T00:22:50;10.40;46.90
40257;DHT22;25977;45.462;9.210;2023-04-06T00:25:16;10.30;47.00
40257;DHT22;25977;45.462;9.210;2023-04-06T00:27:46;10.30;47.00
40257;DHT22;25977;45.462;9.210;2023-04-06T00:30:12;10.20;46.70
40257;DHT22;25977;45.462;9.210;2023-04-06T00:32:38;10.00;47.00
40257;DHT22;25977;45.462;9.210;2023-04-06T00:35:04;10.20;46.90
40257;DHT22;25977;45.462;9.210;2023-04-06T00:37:30;10.20;46.90
40257;DHT22;25977;45.462;9.210;2023-04-06T00:39:56;10.20;46.80
40257;DHT22;25977;45.462;9.210;2023-04-06T00:42:22;10.20;46.70
40257;DHT22;25977;45.462;9.210;2023-04-06T00:44:54;10.00;46.90
40257;DHT22;25977;45.462;9.210;2023-04-06T00:47:21;10.10;46.90
40257;DHT22;25977;45.462;9.210;2023-04-06T00:49:48;10.10;46.80
40257;DHT22;25977;45.462;9.210;2023-04-06T00:52:14;10.20;46.70
40257;DHT22;25977;45.462;9.210;2023-04-06T00:54:43;10.10;46.70
40257;DHT22;25977;45.462;9.210;2023-04-06T00:57:12;10.10;46.80
40257;DHT22;25977;45.462;9.210;2023-04-06T00:59:39;10.20;46.90
40257;DHT22;25977;45.462;9.210;2023-04-06T01:02:08;10.10;47.00
40257;DHT22;25977;45.462;9.210;2023-04-06T01:04:40;10.10;47.00
40257;DHT22;25977;45.462;9.210;2023-04-06T01:07:11;10.10;47.20
40257;DHT22;25977;45.462;9.210;2023-04-06T01:09:45;10.10;47.10
40257;DHT22;25977;45.462;9.210;2023-04-06T01:12:17;10.00;47.20
40257;DHT22;25977;45.462;9.210;2023-04-06T01:14:43;9.80;47.40
40257;DHT22;25977;45.462;9.210;2023-04-06T01:17:09;9.90;47.50
40257;DHT22;25977;45.462;9.210;2023-04-06T01:19:35;9.90;47.60
40257;DHT22;25977;45.462;9.210;2023-04-06T01:22:01;9.90;47.60
40257;DHT22;25977;45.462;9.210;2023-04-06T01:24:30;9.90;47.60
40257;DHT22;25977;45.462;9.210;2023-04-06T01:26:58;9.90;47.60
40257;DHT22;25977;45.462;9.210;2023-04-06T01:29:30;9.90;47.60
40257;DHT22;25977;45.462;9.210;2023-04-06T01:31:56;9.90;47.60
40257;DHT22;25977;45.462;9.210;2023-04-06T01:34:23;9.90;47.70
40257;DHT22;25977;45.462;9.210;2023-04-06T01:36:49;9.90;47.70
40257;DHT22;25977;45.462;9.210;2023-04-06T01:39:30;9.90;47.50
40257;DHT22;25977;45.462;9.210;2023-04-06T01:41:56;9.90;47.50
40257;DHT22;25977;45.462;9.210;2023-04-06T01:44:23;9.90;47.50
40257;DHT22;25977;45.462;9.210;2023-04-06T01:46:59;9.80;47.50
40257;DHT22;25977;45.462;9.210;2023-04-06T01:49:25;9.80;47.60
40257;DHT22;25977;45.462;9.210;2023-04-06T01:51:54;9.80;47.60
40257;DHT22;25977;45.462;9.210;2023-04-06T01:54:20;9.70;47.20
40257;DHT22;25977;45.462;9.210;2023-04-06T01:57:06;9.70;47.30
40257;DHT22;25977;45.462;9.210;2023-04-06T01:59:45;9.70;47.50
40257;DHT22;25977;45.462;9.210;2023-04-06T02:02:19;9.70;47.60
40257;DHT22;25977;45.462;9.210;2023-04-06T02:04:54;9.60;47.50
40257;DHT22;25977;45.462;9.210;2023-04-06T02:07:20;9.60;47.60
40257;DHT22;25977;45.462;9.210;2023-04-06T02:09:46;9.60;47.80
40257;DHT22;25977;45.462;9.210;2023-04-06T02:12:20;9.50;47.90
40257;DHT22;25977;45.462;9.210;2023-04-06T02:14:46;9.50;48.00
40257;DHT22;25977;45.462;9.210;2023-04-06T02:17:12;9.50;48.10
40257;DHT22;25977;45.462;9.210;2023-04-06T02:19:37;9.50;48.10
40257;DHT22;25977;45.462;9.210;2023-04-06T02:22:03;9.50;48.00
40257;DHT22;25977;45.462;9.210;2023-04-06T02:24:28;9.50;48.50
40257;DHT22;25977;45.462;9.210;2023-04-06T02:26:54;9.60;48.00
40257;DHT22;25977;45.462;9.210;2023-04-06T02:29:21;9.50;47.80
40257;DHT22;25977;45.462;9.210;2023-04-06T02:31:47;9.50;47.80
40257;DHT22;25977;45.462;9.210;2023-04-06T02:34:13;9.40;47.80
40257;DHT22;25977;45.462;9.210;2023-04-06T02:36:45;9.40;47.90
40257;DHT22;25977;45.462;9.210;2023-04-06T02:39:14;9.40;48.00
40257;DHT22;25977;45.462;9.210;2023-04-06T02:41:41;9.50;48.00
40257;DHT22;25977;45.462;9.210;2023-04-06T02:44:08;9.50;48.10
40257;DHT22;25977;45.462;9.210;2023-04-06T02:46:40;9.50;47.90
40257;DHT22;25977;45.462;9.210;2023-04-06T02:49:06;9.50;47.80
40257;DHT22;25977;45.462;9.210;2023-04-06T02:51:33;9.40;47.80
40257;DHT22;25977;45.462;9.210;2023-04-06T02:54:11;9.40;47.70
40257;DHT22;25977;45.462;9.210;2023-04-06T02:56:37;9.50;47.50
40257;DHT22;25977;45.462;9.210;2023-04-06T02:59:03;9.30;47.60
40257;DHT22;25977;45.462;9.210;2023-04-06T03:01:31;9.30;47.60
40257;DHT22;25977;45.462;9.210;2023-04-06T03:04:01;9.30;47.60
40257;DHT22;25977;45.462;9.210;2023-04-06T03:06:28;9.30;47.60
40257;DHT22;25977;45.462;9.210;2023-04-06T03:08:59;9.30;47.50
40257;DHT22;25977;45.462;9.210;2023-04-06T03:11:25;9.30;47.70
40257;DHT22;25977;45.462;9.210;2023-04-06T03:13:52;9.30;47.70
40257;DHT22;25977;45.462;9.210;2023-04-06T03:16:18;9.30;47.70
40257;DHT22;25977;45.462;9.210;2023-04-06T03:18:44;9.30;47.70
40257;DHT22;25977;45.462;9.210;2023-04-06T03:21:16;9.30;47.60
40257;DHT22;25977;45.462;9.210;2023-04-06T03:23:47;9.30;47.70
40257;DHT22;25977;45.462;9.210;2023-04-06T03:26:15;9.30;47.80
40257;DHT22;25977;45.462;9.210;2023-04-06T03:28:41;9.20;48.00
40257;DHT22;25977;45.462;9.210;2023-04-06T03:31:06;9.30;48.10
40257;DHT22;25977;45.462;9.210;2023-04-06T03:33:51;9.30;48.00
40257;DHT22;25977;45.462;9.210;2023-04-06T03:36:24;9.30;48.00
40257;DHT22;25977;45.462;9.210;2023-04-06T03:38:53;9.30;48.00
40257;DHT22;25977;45.462;9.210;2023-04-06T03:41:19;9.30;48.00
40257;DHT22;25977;45.462;9.210;2023-04-06T03:43:53;9.40;48.10
40257;DHT22;25977;45.462;9.210;2023-04-06T03:46:19;9.30;47.90
40257;DHT22;25977;45.462;9.210;2023-04-06T03:48:49;9.30;48.00
40257;DHT22;25977;45.462;9.210;2023-04-06T03:51:17;9.20;48.10
40257;DHT22;25977;45.462;9.210;2023-04-06T03:53:42;9.10;48.20
40257;DHT22;25977;45.462;9.210;2023-04-06T03:56:08;9.10;48.30
40257;DHT22;25977;45.462;9.210;2023-04-06T03:58:34;9.10;48.20
40257;DHT22;25977;45.462;9.210;2023-04-06T04:01:00;9.10;48.30
40257;DHT22;25977;45.462;9.210;2023-04-06T04:03:26;9.20;48.40
40257;DHT22;25977;45.462;9.210;2023-04-06T04:05:53;9.10;48.40
40257;DHT22;25977;45.462;9.210;2023-04-06T04:08:22;9.20;48.40
40257;DHT22;25977;45.462;9.210;2023-04-06T04:10:47;9.10;48.20
40257;DHT22;25977;45.462;9.210;2023-04-06T04:13:13;9.20;48.30
40257;DHT22;25977;45.462;9.210;2023-04-06T04:15:41;9.20;48.40
40257;DHT22;25977;45.462;9.210;2023-04-06T04:18:08;9.20;48.50
40257;DHT22;25977;45.462;9.210;2023-04-06T04:20:34;9.20;48.30
40257;DHT22;25977;45.462;9.210;2023-04-06T04:23:00;9.10;48.20
40257;DHT22;25977;45.462;9.210;2023-04-06T04:25:27;9.10;48.40
40257;DHT22;25977;45.462;9.210;2023-04-06T04:27:52;9.10;48.40
40257;DHT22;25977;45.462;9.210;2023-04-06T04:30:20;9.10;48.50
40257;DHT22;25977;45.462;9.210;2023-04-06T04:32:46;9.00;48.70
40257;DHT22;25977;45.462;9.210;2023-04-06T04:35:12;9.10;48.80
40257;DHT22;25977;45.462;9.210;2023-04-06T04:37:41;9.00;48.80
40257;DHT22;25977;45.462;9.210;2023-04-06T04:40:08;9.10;49.10
40257;DHT22;25977;45.462;9.210;2023-04-06T04:42:44;9.00;49.20
40257;DHT22;25977;45.462;9.210;2023-04-06T04:45:17;8.90;49.00
40257;DHT22;25977;45.462;9.210;2023-04-06T04:47:42;9.00;49.20
40257;DHT22;25977;45.462;9.210;2023-04-06T04:50:11;8.90;49.00
40257;DHT22;25977;45.462;9.210;2023-04-06T04:52:40;8.90;49.10
40257;DHT22;25977;45.462;9.210;2023-04-06T04:55:19;9.00;49.10
40257;DHT22;25977;45.462;9.210;2023-04-06T04:57:49;9.00;49.00
40257;DHT22;25977;45.462;9.210;2023-04-06T05:00:17;9.00;49.00
40257;DHT22;25977;45.462;9.210;2023-04-06T05:02:44;9.00;49.00
40257;DHT22;25977;45.462;9.210;2023-04-06T05:05:20;9.00;48.90
40257;DHT22;25977;45.462;9.210;2023-04-06T05:07:46;9.00;49.10
40257;DHT22;25977;45.462;9.210;2023-04-06T05:10:22;9.00;49.00
40257;DHT22;25977;45.462;9.210;2023-04-06T05:12:57;9.00;49.10
40257;DHT22;25977;45.462;9.210;2023-04-06T05:15:23;9.00;49.10
40257;DHT22;25977;45.462;9.210;2023-04-06T05:17:52;9.10;49.00
40257;DHT22;25977;45.462;9.210;2023-04-06T05:20:23;9.20;48.90
40257;DHT22;25977;45.462;9.210;2023-04-06T05:22:52;9.20;48.80
40257;DHT22;25977;45.462;9.210;2023-04-06T05:25:17;9.20;48.90
40257;DHT22;25977;45.462;9.210;2023-04-06T05:27:45;9.30;48.80
40257;DHT22;25977;45.462;9.210;2023-04-06T05:30:31;9.30;48.50
40257;DHT22;25977;45.462;9.210;2023-04-06T05:32:58;9.30;48.50
40257;DHT22;25977;45.462;9.210;2023-04-06T05:35:30;9.30;48.60
40257;DHT22;25977;45.462;9.210;2023-04-06T05:38:01;9.20;48.70
40257;DHT22;25977;45.462;9.210;2023-04-06T05:40:27;9.30;49.00
40257;DHT22;25977;45.462;9.210;2023-04-06T05:42:52;9.40;48.90
40257;DHT22;25977;45.462;9.210;2023-04-06T05:45:20;9.40;48.70
40257;DHT22;25977;45.462;9.210;2023-04-06T05:47:51;9.50;48.60
40257;DHT22;25977;45.462;9.210;2023-04-06T05:50:22;9.50;48.80
40257;DHT22;25977;45.462;9.210;2023-04-06T05:52:48;9.10;48.70
40257;DHT22;25977;45.462;9.210;2023-04-06T05:55:17;9.70;48.90
40257;DHT22;25977;45.462;9.210;2023-04-06T05:57:52;9.80;48.90
40257;DHT22;25977;45.462;9.210;2023-04-06T06:00:20;9.90;48.80
40257;DHT22;25977;45.462;9.210;2023-04-06T06:02:55;9.90;48.50
40257;DHT22;25977;45.462;9.210;2023-04-06T06:05:26;10.00;48.40
40257;DHT22;25977;45.462;9.210;2023-04-06T06:07:53;10.00;48.00
40257;DHT22;25977;45.462;9.210;2023-04-06T06:10:20;10.00;47.80
40257;DHT22;25977;45.462;9.210;2023-04-06T06:12:45;10.10;47.90
40257;DHT22;25977;45.462;9.210;2023-04-06T06:15:12;10.10;47.80
40257;DHT22;25977;45.462;9.210;2023-04-06T06:17:42;10.10;47.70
40257;DHT22;25977;45.462;9.210;2023-04-06T06:20:09;10.30;47.80
40257;DHT22;25977;45.462;9.210;2023-04-06T06:22:35;10.40;47.60
40257;DHT22;25977;45.462;9.210;2023-04-06T06:25:02;10.90;47.00
40257;DHT22;25977;45.462;9.210;2023-04-06T06:27:28;11.90;47.00
40257;DHT22;25977;45.462;9.210;2023-04-06T06:29:54;13.00;44.30
40257;DHT22;25977;45.462;9.210;2023-04-06T06:32:21;13.90;42.60
40257;DHT22;25977;45.462;9.210;2023-04-06T06:34:50;15.40;42.90
40257;DHT22;25977;45.462;9.210;2023-04-06T06:37:17;15.50;41.20
40257;DHT22;25977;45.462;9.210;2023-04-06T06:39:43;16.10;39.40
40257;DHT22;25977;45.462;9.210;2023-04-06T06:42:09;16.00;39.50
40257;DHT22;25977;45.462;9.210;2023-04-06T06:44:51;17.50;48.90
40257;DHT22;25977;45.462;9.210;2023-04-06T06:47:17;18.00;49.60
40257;DHT22;25977;45.462;9.210;2023-04-06T06:49:43;18.00;47.10
40257;DHT22;25977;45.462;9.210;2023-04-06T06:52:09;18.60;45.00
40257;DHT22;25977;45.462;9.210;2023-04-06T06:57:01;18.60;36.90
40257;DHT22;25977;45.462;9.210;2023-04-06T06:59:26;18.90;37.70
40257;DHT22;25977;45.462;9.210;2023-04-06T07:01:52;19.20;37.40
40257;DHT22;25977;45.462;9.210;2023-04-06T07:04:19;19.80;37.50
40257;DHT22;25977;45.462;9.210;2023-04-06T07:06:45;19.90;37.40
40257;DHT22;25977;45.462;9.210;2023-04-06T07:09:10;20.10;36.70
40257;DHT22;25977;45.462;9.210;2023-04-06T07:11:36;21.00;39.00
40257;DHT22;25977;45.462;9.210;2023-04-06T07:18:54;21.60;37.70
40257;DHT22;25977;45.462;9.210;2023-04-06T07:26:16;20.50;34.30
40257;DHT22;25977;45.462;9.210;2023-04-06T07:28:42;21.50;34.80
40257;DHT22;25977;45.462;9.210;2023-04-06T07:31:09;21.30;35.30
40257;DHT22;25977;45.462;9.210;2023-04-06T07:33:35;21.30;35.70
40257;DHT22;25977;45.462;9.210;2023-04-06T07:36:02;21.20;35.10
40257;DHT22;25977;45.462;9.210;2023-04-06T07:38:28;20.20;35.30
40257;DHT22;25977;45.462;9.210;2023-04-06T07:40:54;19.90;35.40
40257;DHT22;25977;45.462;9.210;2023-04-06T07:43:20;19.40;34.60
40257;DHT22;25977;45.462;9.210;2023-04-06T07:45:45;19.20;34.90
40257;DHT22;25977;45.462;9.210;2023-04-06T07:48:14;18.50;35.30
40257;DHT22;25977;45.462;9.210;2023-04-06T07:50:40;18.20;35.70
40257;DHT22;25977;45.462;9.210;2023-04-06T07:53:08;17.70;36.10
40257;DHT22;25977;45.462;9.210;2023-04-06T07:55:34;17.50;37.20
40257;DHT22;25977;45.462;9.210;2023-04-06T07:58:00;17.20;37.00
40257;DHT22;25977;45.462;9.210;2023-04-06T08:00:26;17.10;36.80
40257;DHT22;25977;45.462;9.210;2023-04-06T08:02:51;17.10;36.70
40257;DHT22;25977;45.462;9.210;2023-04-06T08:05:17;16.90;37.00
40257;DHT22;25977;45.462;9.210;2023-04-06T08:07:43;16.80;36.30
40257;DHT22;25977;45.462;9.210;2023-04-06T08:10:09;16.90;36.40
40257;DHT22;25977;45.462;9.210;2023-04-06T08:12:35;16.80;37.00
40257;DHT22;25977;45.462;9.210;2023-04-06T08:15:01;16.60;35.60
40257;DHT22;25977;45.462;9.210;2023-04-06T08:17:28;16.60;35.40
40257;DHT22;25977;45.462;9.210;2023-04-06T08:19:55;16.60;36.10
40257;DHT22;25977;45.462;9.210;2023-04-06T08:22:21;16.70;36.30
40257;DHT22;25977;45.462;9.210;2023-04-06T08:24:47;16.80;35.50
40257;DHT22;25977;45.462;9.210;2023-04-06T08:27:12;16.50;34.90
40257;DHT22;25977;45.462;9.210;2023-04-06T08:29:40;16.10;40.30
40257;DHT22;25977;45.462;9.210;2023-04-06T08:34:33;16.70;43.00
40257;DHT22;25977;45.462;9.210;2023-04-06T08:36:59;17.00;45.40
40257;DHT22;25977;45.462;9.210;2023-04-06T08:39:25;16.90;40.60
40257;DHT22;25977;45.462;9.210;2023-04-06T08:46:48;17.30;45.40
40257;DHT22;25977;45.462;9.210;2023-04-06T08:49:16;16.90;45.80
40257;DHT22;25977;45.462;9.210;2023-04-06T08:51:42;17.10;45.60
40257;DHT22;25977;45.462;9.210;2023-04-06T08:54:08;16.80;46.00
40257;DHT22;25977;45.462;9.210;2023-04-06T08:56:37;17.30;44.70
40257;DHT22;25977;45.462;9.210;2023-04-06T08:59:04;16.50;45.00
40257;DHT22;25977;45.462;9.210;2023-04-06T09:01:33;16.80;36.70
40257;DHT22;25977;45.462;9.210;2023-04-06T09:04:01;16.70;35.50
40257;DHT22;25977;45.462;9.210;2023-04-06T09:06:30;17.20;36.20
40257;DHT22;25977;45.462;9.210;2023-04-06T09:08:56;16.70;36.00
40257;DHT22;25977;45.462;9.210;2023-04-06T09:11:22;16.70;36.50
40257;DHT22;25977;45.462;9.210;2023-04-06T09:13:53;16.60;36.70
40257;DHT22;25977;45.462;9.210;2023-04-06T09:16:21;16.70;37.90
40257;DHT22;25977;45.462;9.210;2023-04-06T09:18:47;16.80;37.10
40257;DHT22;25977;45.462;9.210;2023-04-06T09:21:16;17.00;36.80
40257;DHT22;25977;45.462;9.210;2023-04-06T09:23:42;17.20;36.50
40257;DHT22;25977;45.462;9.210;2023-04-06T09:26:16;17.20;36.50
40257;DHT22;25977;45.462;9.210;2023-04-06T09:28:50;17.20;36.60
40257;DHT22;25977;45.462;9.210;2023-04-06T09:31:27;17.10;36.70
40257;DHT22;25977;45.462;9.210;2023-04-06T09:33:54;17.10;37.00
40257;DHT22;25977;45.462;9.210;2023-04-06T09:36:29;17.00;36.60
40257;DHT22;25977;45.462;9.210;2023-04-06T09:39:04;16.80;36.90
40257;DHT22;25977;45.462;9.210;2023-04-06T09:41:36;16.90;37.20
40257;DHT22;25977;45.462;9.210;2023-04-06T09:44:07;16.50;37.80
40257;DHT22;25977;45.462;9.210;2023-04-06T09:46:40;16.50;37.80
40257;DHT22;25977;45.462;9.210;2023-04-06T09:49:07;16.60;38.00
40257;DHT22;25977;45.462;9.210;2023-04-06T09:51:51;16.80;37.90
40257;DHT22;25977;45.462;9.210;2023-04-06T09:54:19;16.60;37.80
40257;DHT22;25977;45.462;9.210;2023-04-06T09:56:48;16.70;38.10
40257;DHT22;25977;45.462;9.210;2023-04-06T10:02:18;16.90;38.70
40257;DHT22;25977;45.462;9.210;2023-04-06T10:05:00;17.00;39.50
40257;DHT22;25977;45.462;9.210;2023-04-06T10:07:28;17.10;38.90
40257;DHT22;25977;45.462;9.210;2023-04-06T10:09:55;17.10;38.00
40257;DHT22;25977;45.462;9.210;2023-04-06T10:12:21;17.00;37.70
40257;DHT22;25977;45.462;9.210;2023-04-06T10:14:47;17.10;38.90
40257;DHT22;25977;45.462;9.210;2023-04-06T10:17:13;17.20;38.90
40257;DHT22;25977;45.462;9.210;2023-04-06T10:19:49;17.20;38.30
40257;DHT22;25977;45.462;9.210;2023-04-06T10:22:45;17.20;38.10
40257;DHT22;25977;45.462;9.210;2023-04-06T10:25:09;17.10;38.70
40257;DHT22;25977;45.462;9.210;2023-04-06T10:27:34;17.20;38.60
40257;DHT22;25977;45.462;9.210;2023-04-06T10:30:02;17.20;38.40
40257;DHT22;25977;45.462;9.210;2023-04-06T10:32:37;17.30;38.60
40257;DHT22;25977;45.462;9.210;2023-04-06T10:35:08;17.30;38.00
40257;DHT22;25977;45.462;9.210;2023-04-06T10:38:09;17.30;37.10
40257;DHT22;25977;45.462;9.210;2023-04-06T10:40:38;17.30;37.10
40257;DHT22;25977;45.462;9.210;2023-04-06T10:43:08;17.20;37.00
40257;DHT22;25977;45.462;9.210;2023-04-06T10:45:34;17.20;37.10
40257;DHT22;25977;45.462;9.210;2023-04-06T10:48:01;16.90;37.40
40257;DHT22;25977;45.462;9.210;2023-04-06T10:50:38;16.70;37.70
40257;DHT22;25977;45.462;9.210;2023-04-06T10:53:05;16.70;37.70
40257;DHT22;25977;45.462;9.210;2023-04-06T10:55:34;16.60;37.90
40257;DHT22;25977;45.462;9.210;2023-04-06T10:58:00;16.70;37.70
40257;DHT22;25977;45.462;9.210;2023-04-06T11:00:25;16.80;37.70
40257;DHT22;25977;45.462;9.210;2023-04-06T11:02:58;16.50;37.70
40257;DHT22;25977;45.462;9.210;2023-04-06T11:05:24;16.70;38.00
40257;DHT22;25977;45.462;9.210;2023-04-06T11:07:49;16.60;37.70
40257;DHT22;25977;45.462;9.210;2023-04-06T11:10:21;16.60;37.50
40257;DHT22;25977;45.462;9.210;2023-04-06T11:12:53;16.70;38.00
40257;DHT22;25977;45.462;9.210;2023-04-06T11:15:20;16.70;39.50
40257;DHT22;25977;45.462;9.210;2023-04-06T11:17:46;16.70;38.30
40257;DHT22;25977;45.462;9.210;2023-04-06T11:20:12;16.70;38.10
40257;DHT22;25977;45.462;9.210;2023-04-06T11:22:53;16.70;38.30
40257;DHT22;25977;45.462;9.210;2023-04-06T11:25:19;16.70;38.50
40257;DHT22;25977;45.462;9.210;2023-04-06T11:27:46;16.70;38.40
40257;DHT22;25977;45.462;9.210;2023-04-06T11:30:14;16.70;38.20
40257;DHT22;25977;45.462;9.210;2023-04-06T11:32:41;16.70;38.40
40257;DHT22;25977;45.462;9.210;2023-04-06T11:35:20;16.60;38.20
40257;DHT22;25977;45.462;9.210;2023-04-06T11:37:46;16.60;38.10
40257;DHT22;25977;45.462;9.210;2023-04-06T11:40:12;16.60;38.00
40257;DHT22;25977;45.462;9.210;2023-04-06T11:42:37;16.60;37.90
40257;DHT22;25977;45.462;9.210;2023-04-06T11:45:03;16.60;37.90
40257;DHT22;25977;45.462;9.210;2023-04-06T11:47:34;16.60;38.30
40257;DHT22;25977;45.462;9.210;2023-04-06T11:50:11;16.60;38.60
40257;DHT22;25977;45.462;9.210;2023-04-06T11:52:41;16.60;38.70
40257;DHT22;25977;45.462;9.210;2023-04-06T11:55:15;16.70;38.80
40257;DHT22;25977;45.462;9.210;2023-04-06T11:57:42;16.60;39.00
40257;DHT22;25977;45.462;9.210;2023-04-06T12:00:09;16.20;38.90
40257;DHT22;25977;45.462;9.210;2023-04-06T12:02:36;16.30;39.00
40257;DHT22;25977;45.462;9.210;2023-04-06T12:05:03;16.30;39.00
40257;DHT22;25977;45.462;9.210;2023-04-06T12:07:30;16.30;38.80
40257;DHT22;25977;45.462;9.210;2023-04-06T12:09:56;16.40;38.90
40257;DHT22;25977;45.462;9.210;2023-04-06T12:12:21;16.50;38.80
40257;DHT22;25977;45.462;9.210;2023-04-06T12:14:47;16.50;38.90
40257;DHT22;25977;45.462;9.210;2023-04-06T12:17:13;16.60;38.80
40257;DHT22;25977;45.462;9.210;2023-04-06T12:19:38;16.60;38.50
40257;DHT22;25977;45.462;9.210;2023-04-06T12:22:04;16.70;38.70
40257;DHT22;25977;45.462;9.210;2023-04-06T12:24:30;16.80;38.90
40257;DHT22;25977;45.462;9.210;2023-04-06T12:26:56;16.70;38.80
40257;DHT22;25977;45.462;9.210;2023-04-06T12:29:23;16.70;38.80
40257;DHT22;25977;45.462;9.210;2023-04-06T12:31:49;16.80;38.80
40257;DHT22;25977;45.462;9.210;2023-04-06T12:34:15;16.80;38.50
40257;DHT22;25977;45.462;9.210;2023-04-06T12:36:40;16.80;38.70
40257;DHT22;25977;45.462;9.210;2023-04-06T12:39:06;16.70;38.80
40257;DHT22;25977;45.462;9.210;2023-04-06T12:41:32;16.70;39.50
40257;DHT22;25977;45.462;9.210;2023-04-06T12:43:58;16.60;38.90
40257;DHT22;25977;45.462;9.210;2023-04-06T12:46:24;16.70;39.10
40257;DHT22;25977;45.462;9.210;2023-04-06T12:48:51;16.80;38.90
40257;DHT22;25977;45.462;9.210;2023-04-06T12:51:19;16.90;39.00
40257;DHT22;25977;45.462;9.210;2023-04-06T12:53:45;16.90;38.80
40257;DHT22;25977;45.462;9.210;2023-04-06T12:56:16;16.90;39.00
40257;DHT22;25977;45.462;9.210;2023-04-06T12:58:43;16.90;39.00
40257;DHT22;25977;45.462;9.210;2023-04-06T13:01:09;16.90;38.80
40257;DHT22;25977;45.462;9.210;2023-04-06T13:03:36;17.00;39.00
40257;DHT22;25977;45.462;9.210;2023-04-06T13:06:02;16.80;38.80
40257;DHT22;25977;45.462;9.210;2023-04-06T13:08:28;16.90;39.10
40257;DHT22;25977;45.462;9.210;2023-04-06T13:10:54;16.90;39.10
40257;DHT22;25977;45.462;9.210;2023-04-06T13:13:23;16.90;39.10
40257;DHT22;25977;45.462;9.210;2023-04-06T13:15:50;16.90;39.30
40257;DHT22;25977;45.462;9.210;2023-04-06T13:18:16;17.00;39.30
40257;DHT22;25977;45.462;9.210;2023-04-06T13:20:42;16.90;39.30
40257;DHT22;25977;45.462;9.210;2023-04-06T13:23:08;16.70;39.20
40257;DHT22;25977;45.462;9.210;2023-04-06T13:25:34;16.50;39.50
40257;DHT22;25977;45.462;9.210;2023-04-06T13:28:00;16.30;39.70
40257;DHT22;25977;45.462;9.210;2023-04-06T13:30:25;16.40;39.80
40257;DHT22;25977;45.462;9.210;2023-04-06T13:32:51;16.50;39.80
40257;DHT22;25977;45.462;9.210;2023-04-06T13:35:17;16.70;39.70
40257;DHT22;25977;45.462;9.210;2023-04-06T13:37:43;16.80;39.30
40257;DHT22;25977;45.462;9.210;2023-04-06T13:40:10;16.80;39.20
40257;DHT22;25977;45.462;9.210;2023-04-06T13:42:36;16.90;39.30
40257;DHT22;25977;45.462;9.210;2023-04-06T13:45:03;17.00;39.00
40257;DHT22;25977;45.462;9.210;2023-04-06T13:47:29;17.00;38.90
40257;DHT22;25977;45.462;9.210;2023-04-06T13:49:55;17.10;39.00
40257;DHT22;25977;45.462;9.210;2023-04-06T13:52:21;17.00;38.90
40257;DHT22;25977;45.462;9.210;2023-04-06T13:54:48;17.10;39.30
40257;DHT22;25977;45.462;9.210;2023-04-06T13:57:14;17.10;39.30
40257;DHT22;25977;45.462;9.210;2023-04-06T13:59:40;17.10;39.40
40257;DHT22;25977;45.462;9.210;2023-04-06T14:02:08;17.00;39.70
40257;DHT22;25977;45.462;9.210;2023-04-06T14:04:33;16.90;39.70
40257;DHT22;25977;45.462;9.210;2023-04-06T14:07:01;16.70;39.80
40257;DHT22;25977;45.462;9.210;2023-04-06T14:09:27;16.80;39.70
40257;DHT22;25977;45.462;9.210;2023-04-06T14:11:53;16.80;39.40
40257;DHT22;25977;45.462;9.210;2023-04-06T14:14:20;16.80;38.90
40257;DHT22;25977;45.462;9.210;2023-04-06T14:16:47;16.80;38.70
40257;DHT22;25977;45.462;9.210;2023-04-06T14:19:14;16.70;38.60
40257;DHT22;25977;45.462;9.210;2023-04-06T14:21:44;16.70;38.90
40257;DHT22;25977;45.462;9.210;2023-04-06T14:24:10;16.60;39.00
40257;DHT22;25977;45.462;9.210;2023-04-06T14:26:36;16.60;39.10
40257;DHT22;25977;45.462;9.210;2023-04-06T14:29:03;16.60;39.30
40257;DHT22;25977;45.462;9.210;2023-04-06T14:31:30;16.60;39.40
40257;DHT22;25977;45.462;9.210;2023-04-06T14:33:56;16.60;39.40
40257;DHT22;25977;45.462;9.210;2023-04-06T14:36:22;16.60;39.50
40257;DHT22;25977;45.462;9.210;2023-04-06T14:38:48;16.60;39.30
40257;DHT22;25977;45.462;9.210;2023-04-06T14:41:17;16.60;39.30
40257;DHT22;25977;45.462;9.210;2023-04-06T14:43:44;16.50;39.20
40257;DHT22;25977;45.462;9.210;2023-04-06T14:46:09;16.50;39.20
40257;DHT22;25977;45.462;9.210;2023-04-06T14:48:35;16.40;39.10
40257;DHT22;25977;45.462;9.210;2023-04-06T14:51:01;16.50;39.30
40257;DHT22;25977;45.462;9.210;2023-04-06T14:53:27;16.60;38.90
40257;DHT22;25977;45.462;9.210;2023-04-06T14:55:53;16.40;38.80
40257;DHT22;25977;45.462;9.210;2023-04-06T14:58:20;16.50;38.50
40257;DHT22;25977;45.462;9.210;2023-04-06T15:00:47;16.60;38.40
40257;DHT22;25977;45.462;9.210;2023-04-06T15:03:13;16.40;38.20
40257;DHT22;25977;45.462;9.210;2023-04-06T15:05:39;16.40;38.40
40257;DHT22;25977;45.462;9.210;2023-04-06T15:08:04;16.50;38.60
40257;DHT22;25977;45.462;9.210;2023-04-06T15:10:33;16.40;38.60
40257;DHT22;25977;45.462;9.210;2023-04-06T15:12:59;16.40;38.70
40257;DHT22;25977;45.462;9.210;2023-04-06T15:15:25;16.40;38.50
40257;DHT22;25977;45.462;9.210;2023-04-06T15:17:51;16.40;38.60
40257;DHT22;25977;45.462;9.210;2023-04-06T15:20:17;16.50;38.90
40257;DHT22;25977;45.462;9.210;2023-04-06T15:22:43;16.50;38.60
40257;DHT22;25977;45.462;9.210;2023-04-06T15:25:09;16.60;38.40
40257;DHT22;25977;45.462;9.210;2023-04-06T15:27:34;16.70;38.40
40257;DHT22;25977;45.462;9.210;2023-04-06T15:30:00;16.70;38.20
40257;DHT22;25977;45.462;9.210;2023-04-06T15:32:26;16.70;38.20
40257;DHT22;25977;45.462;9.210;2023-04-06T15:34:53;16.70;38.20
40257;DHT22;25977;45.462;9.210;2023-04-06T15:37:20;16.80;38.00
40257;DHT22;25977;45.462;9.210;2023-04-06T15:39:46;16.70;37.90
40257;DHT22;25977;45.462;9.210;2023-04-06T15:42:11;16.70;38.10
40257;DHT22;25977;45.462;9.210;2023-04-06T15:44:37;16.60;38.20
40257;DHT22;25977;45.462;9.210;2023-04-06T15:47:03;16.60;38.50
40257;DHT22;25977;45.462;9.210;2023-04-06T15:49:28;16.70;38.60
40257;DHT22;25977;45.462;9.210;2023-04-06T15:51:54;16.70;38.60
40257;DHT22;25977;45.462;9.210;2023-04-06T15:54:20;16.60;38.50
40257;DHT22;25977;45.462;9.210;2023-04-06T15:56:46;16.60;38.60
40257;DHT22;25977;45.462;9.210;2023-04-06T15:59:12;16.60;38.60
40257;DHT22;25977;45.462;9.210;2023-04-06T16:01:38;16.60;38.50